sensor_id;sensor_type;location;lat;lon;timestamp;pressure;altitude;pressure_sealevel;temperature;humidity
54308;BME280;40208;39.778;2.710;2024-01-27T00:02:30;102824.53;;;9.95;100.00
54308;BME280;40208;39.778;2.710;2024-01-27T00:05:15;102701.25;;;9.49;100.00
54308;BME280;40208;39.778;2.710;2024-01-27T00:08:00;102840.00;;;10.43;100.00
54308;BME280;40208;39.778;2.710;2024-01-27T00:10:45;102797.72;;;10.21;100.00
54308;BME280;40208;39.778;2.710;2024-01-27T00:13:30;102901.53;;;10.78;100.00
54308;BME280;40208;39.778;2.710;2024-01-27T00:16:15;102886.22;;;10.18;100.00
54308;BME280;40208;39.778;2.710;2024-01-27T00:19:00;102835.38;;;9.67;100.00
54308;BME280;40208;39.778;2.710;2024-01-27T00:21:45;102856.59;;;9.69;100.00
54308;BME280;40208;39.778;2.710;2024-01-27T00:24:30;102878.38;;;10.03;100.00
54308;BME280;40208;39.778;2.710;2024-01-27T00:27:15;102873.63;;;10.42;100.00
54308;BME280;40208;39.778;2.710;2024-01-27T00:30:00;102865.88;;;10.17;100.00
54308;BME280;40208;39.778;2.710;2024-01-27T00:32:45;102874.97;;;9.92;100.00
54308;BME280;40208;39.778;2.710;2024-01-27T00:35:30;102758.06;;;9.15;100.00
54308;BME280;40208;39.778;2.710;2024-01-27T00:38:15;102630.34;;;8.77;100.00
54308;BME280;40208;39.778;2.710;2024-01-27T00:41:00;102699.81;;;9.10;100.00
54308;BME280;40208;39.778;2.710;2024-01-27T00:43:45;102672.41;;;9.16;100.00
54308;BME280;40208;39.778;2.710;2024-01-27T00:46:30;102407.44;;;7.29;100.00
54308;BME280;40208;39.778;2.710;2024-01-27T00:49:15;102763.75;;;9.73;100.00
54308;BME280;40208;39.778;2.710;2024-01-27T00:52:00;102739.22;;;9.50;100.00
54308;BME280;40208;39.778;2.710;2024-01-27T00:54:45;102735.78;;;9.39;100.00
54308;BME280;40208;39.778;2.710;2024-01-27T00:57:29;102807.81;;;9.88;100.00
54308;BME280;40208;39.778;2.710;2024-01-27T01:00:14;102751.75;;;9.29;100.00
54308;BME280;40208;39.778;2.710;2024-01-27T01:02:59;102712.81;;;9.42;100.00
54308;BME280;40208;39.778;2.710;2024-01-27T01:05:44;102814.56;;;10.18;100.00
54308;BME280;40208;39.778;2.710;2024-01-27T01:08:29;102760.91;;;9.92;100.00
54308;BME280;40208;39.778;2.710;2024-01-27T01:11:14;102738.69;;;9.09;100.00
54308;BME280;40208;39.778;2.710;2024-01-27T01:13:59;102678.16;;;8.56;100.00
54308;BME280;40208;39.778;2.710;2024-01-27T01:16:44;102872.34;;;9.86;100.00
54308;BME280;40208;39.778;2.710;2024-01-27T01:19:29;102742.25;;;9.04;100.00
54308;BME280;40208;39.778;2.710;2024-01-27T01:22:14;102860.81;;;9.93;100.00
54308;BME280;40208;39.778;2.710;2024-01-27T01:24:59;102766.84;;;9.21;100.00
54308;BME280;40208;39.778;2.710;2024-01-27T01:27:45;102755.44;;;9.10;100.00
54308;BME280;40208;39.778;2.710;2024-01-27T01:30:30;102778.06;;;9.54;100.00
54308;BME280;40208;39.778;2.710;2024-01-27T01:33:15;102844.72;;;10.08;100.00
54308;BME280;40208;39.778;2.710;2024-01-27T01:36:00;102861.75;;;9.87;100.00
54308;BME280;40208;39.778;2.710;2024-01-27T01:38:45;102872.50;;;9.69;100.00
54308;BME280;40208;39.778;2.710;2024-01-27T01:41:30;102739.59;;;9.04;100.00
54308;BME280;40208;39.778;2.710;2024-01-27T01:44:15;102781.69;;;9.44;100.00
54308;BME280;40208;39.778;2.710;2024-01-27T01:47:00;102489.34;;;7.24;100.00
54308;BME280;40208;39.778;2.710;2024-01-27T01:49:45;102418.19;;;6.83;100.00
54308;BME280;40208;39.778;2.710;2024-01-27T01:52:30;102787.94;;;9.32;100.00
54308;BME280;40208;39.778;2.710;2024-01-27T01:55:15;102802.88;;;9.47;100.00
54308;BME280;40208;39.778;2.710;2024-01-27T01:58:01;102884.63;;;9.96;100.00
54308;BME280;40208;39.778;2.710;2024-01-27T02:00:46;102814.63;;;9.07;100.00
54308;BME280;40208;39.778;2.710;2024-01-27T02:03:31;102557.06;;;7.36;100.00
54308;BME280;40208;39.778;2.710;2024-01-27T02:06:16;102772.44;;;8.77;100.00
54308;BME280;40208;39.778;2.710;2024-01-27T02:09:01;102794.41;;;8.97;100.00
54308;BME280;40208;39.778;2.710;2024-01-27T02:11:46;102777.88;;;8.44;100.00
54308;BME280;40208;39.778;2.710;2024-01-27T02:14:31;102889.28;;;9.69;100.00
54308;BME280;40208;39.778;2.710;2024-01-27T02:17:16;102850.69;;;9.31;100.00
54308;BME280;40208;39.778;2.710;2024-01-27T02:20:01;102767.22;;;8.58;100.00
54308;BME280;40208;39.778;2.710;2024-01-27T02:22:46;102850.84;;;9.07;100.00
54308;BME280;40208;39.778;2.710;2024-01-27T02:25:31;102835.00;;;8.91;100.00
54308;BME280;40208;39.778;2.710;2024-01-27T02:28:17;102739.81;;;8.70;100.00
54308;BME280;40208;39.778;2.710;2024-01-27T02:31:02;102798.88;;;8.80;100.00
54308;BME280;40208;39.778;2.710;2024-01-27T02:33:47;102707.53;;;7.93;100.00
54308;BME280;40208;39.778;2.710;2024-01-27T02:36:32;102822.75;;;8.70;100.00
54308;BME280;40208;39.778;2.710;2024-01-27T02:39:17;102758.34;;;8.72;100.00
54308;BME280;40208;39.778;2.710;2024-01-27T02:42:02;102750.28;;;8.91;100.00
54308;BME280;40208;39.778;2.710;2024-01-27T02:44:47;102761.56;;;9.21;100.00
54308;BME280;40208;39.778;2.710;2024-01-27T02:47:32;102788.88;;;9.28;100.00
54308;BME280;40208;39.778;2.710;2024-01-27T02:50:17;102579.53;;;8.23;100.00
54308;BME280;40208;39.778;2.710;2024-01-27T02:53:02;102737.69;;;9.23;100.00
54308;BME280;40208;39.778;2.710;2024-01-27T02:55:47;102757.88;;;9.39;100.00
54308;BME280;40208;39.778;2.710;2024-01-27T02:58:32;102710.47;;;9.05;100.00
54308;BME280;40208;39.778;2.710;2024-01-27T03:01:17;102832.66;;;9.76;100.00
54308;BME280;40208;39.778;2.710;2024-01-27T03:04:02;102463.81;;;7.18;100.00
54308;BME280;40208;39.778;2.710;2024-01-27T03:06:48;102554.44;;;7.31;100.00
54308;BME280;40208;39.778;2.710;2024-01-27T03:09:33;102614.34;;;7.17;100.00
54308;BME280;40208;39.778;2.710;2024-01-27T03:12:19;102683.84;;;7.53;100.00
54308;BME280;40208;39.778;2.710;2024-01-27T03:15:04;102820.06;;;8.87;100.00
54308;BME280;40208;39.778;2.710;2024-01-27T03:17:49;102841.13;;;9.09;100.00
54308;BME280;40208;39.778;2.710;2024-01-27T03:20:34;102773.16;;;9.05;100.00
54308;BME280;40208;39.778;2.710;2024-01-27T03:23:19;102709.69;;;8.93;100.00
54308;BME280;40208;39.778;2.710;2024-01-27T03:26:04;102722.03;;;8.95;100.00
54308;BME280;40208;39.778;2.710;2024-01-27T03:28:49;102663.81;;;8.86;100.00
54308;BME280;40208;39.778;2.710;2024-01-27T03:31:34;102837.00;;;9.84;100.00
54308;BME280;40208;39.778;2.710;2024-01-27T03:34:18;102742.97;;;9.24;100.00
54308;BME280;40208;39.778;2.710;2024-01-27T03:37:08;102637.41;;;8.75;100.00
54308;BME280;40208;39.778;2.710;2024-01-27T03:39:53;102670.97;;;8.73;100.00
54308;BME280;40208;39.778;2.710;2024-01-27T03:42:38;102620.25;;;7.94;100.00
54308;BME280;40208;39.778;2.710;2024-01-27T03:45:23;102392.78;;;6.55;100.00
54308;BME280;40208;39.778;2.710;2024-01-27T03:48:08;102731.16;;;8.43;100.00
54308;BME280;40208;39.778;2.710;2024-01-27T03:50:53;102761.16;;;8.30;100.00
54308;BME280;40208;39.778;2.710;2024-01-27T03:53:38;102759.31;;;8.57;100.00
54308;BME280;40208;39.778;2.710;2024-01-27T03:56:22;102668.75;;;7.89;100.00
54308;BME280;40208;39.778;2.710;2024-01-27T03:59:07;102778.75;;;8.53;100.00
54308;BME280;40208;39.778;2.710;2024-01-27T04:01:53;102659.75;;;8.31;100.00
54308;BME280;40208;39.778;2.710;2024-01-27T04:04:38;102693.41;;;7.98;100.00
54308;BME280;40208;39.778;2.710;2024-01-27T04:07:23;102673.84;;;8.32;100.00
54308;BME280;40208;39.778;2.710;2024-01-27T04:10:08;102728.59;;;8.19;100.00
54308;BME280;40208;39.778;2.710;2024-01-27T04:12:53;102685.47;;;7.95;100.00
54308;BME280;40208;39.778;2.710;2024-01-27T04:15:38;102705.56;;;8.45;100.00
54308;BME280;40208;39.778;2.710;2024-01-27T04:18:23;102718.78;;;8.45;100.00
54308;BME280;40208;39.778;2.710;2024-01-27T04:21:08;102685.38;;;8.20;100.00
54308;BME280;40208;39.778;2.710;2024-01-27T04:23:53;102599.06;;;8.02;100.00
54308;BME280;40208;39.778;2.710;2024-01-27T04:26:38;102660.56;;;8.39;100.00
54308;BME280;40208;39.778;2.710;2024-01-27T04:29:23;102653.56;;;8.35;100.00
54308;BME280;40208;39.778;2.710;2024-01-27T04:32:08;102736.16;;;8.93;100.00
54308;BME280;40208;39.778;2.710;2024-01-27T04:34:52;102695.91;;;8.29;100.00
54308;BME280;40208;39.778;2.710;2024-01-27T04:37:38;102535.03;;;7.35;100.00
54308;BME280;40208;39.778;2.710;2024-01-27T04:40:23;102759.19;;;8.83;100.00
54308;BME280;40208;39.778;2.710;2024-01-27T04:43:08;102745.34;;;8.15;100.00
54308;BME280;40208;39.778;2.710;2024-01-27T04:45:53;102587.94;;;7.08;100.00
54308;BME280;40208;39.778;2.710;2024-01-27T04:48:38;102688.22;;;7.64;100.00
54308;BME280;40208;39.778;2.710;2024-01-27T04:51:23;102499.16;;;6.74;100.00
54308;BME280;40208;39.778;2.710;2024-01-27T04:54:08;102726.88;;;8.01;100.00
54308;BME280;40208;39.778;2.710;2024-01-27T04:56:53;102658.97;;;8.07;100.00
54308;BME280;40208;39.778;2.710;2024-01-27T04:59:38;102684.41;;;8.35;100.00
54308;BME280;40208;39.778;2.710;2024-01-27T05:02:23;102710.78;;;8.56;100.00
54308;BME280;40208;39.778;2.710;2024-01-27T05:05:08;102732.88;;;8.44;100.00
54308;BME280;40208;39.778;2.710;2024-01-27T05:07:54;102709.03;;;8.54;100.00
54308;BME280;40208;39.778;2.710;2024-01-27T05:10:39;102616.56;;;8.23;100.00
54308;BME280;40208;39.778;2.710;2024-01-27T05:13:24;102570.97;;;7.84;100.00
54308;BME280;40208;39.778;2.710;2024-01-27T05:16:08;102759.28;;;8.60;100.00
54308;BME280;40208;39.778;2.710;2024-01-27T05:18:54;102454.31;;;6.57;100.00
54308;BME280;40208;39.778;2.710;2024-01-27T05:21:39;102637.19;;;7.39;100.00
54308;BME280;40208;39.778;2.710;2024-01-27T05:24:24;102692.59;;;7.65;100.00
54308;BME280;40208;39.778;2.710;2024-01-27T05:27:09;102689.03;;;7.85;100.00
54308;BME280;40208;39.778;2.710;2024-01-27T05:29:54;102637.94;;;7.80;100.00
54308;BME280;40208;39.778;2.710;2024-01-27T05:32:39;102832.31;;;9.07;100.00
54308;BME280;40208;39.778;2.710;2024-01-27T05:35:24;102681.16;;;7.71;100.00
54308;BME280;40208;39.778;2.710;2024-01-27T05:38:09;102713.59;;;8.18;100.00
54308;BME280;40208;39.778;2.710;2024-01-27T05:40:54;102764.53;;;8.70;100.00
54308;BME280;40208;39.778;2.710;2024-01-27T05:43:39;102692.34;;;8.38;100.00
54308;BME280;40208;39.778;2.710;2024-01-27T05:46:24;102765.63;;;8.11;100.00
54308;BME280;40208;39.778;2.710;2024-01-27T05:49:10;102720.81;;;7.48;100.00
54308;BME280;40208;39.778;2.710;2024-01-27T05:51:54;102642.53;;;7.07;100.00
54308;BME280;40208;39.778;2.710;2024-01-27T05:54:40;102591.47;;;7.14;100.00
54308;BME280;40208;39.778;2.710;2024-01-27T05:57:28;102540.41;;;7.05;100.00
54308;BME280;40208;39.778;2.710;2024-01-27T06:00:13;102634.47;;;7.72;100.00
54308;BME280;40208;39.778;2.710;2024-01-27T06:02:58;102709.16;;;8.26;100.00
54308;BME280;40208;39.778;2.710;2024-01-27T06:05:43;102771.50;;;8.84;100.00
54308;BME280;40208;39.778;2.710;2024-01-27T06:08:28;102687.94;;;8.43;100.00
54308;BME280;40208;39.778;2.710;2024-01-27T06:11:13;102620.25;;;7.97;100.00
54308;BME280;40208;39.778;2.710;2024-01-27T06:13:59;102759.19;;;8.83;100.00
54308;BME280;40208;39.778;2.710;2024-01-27T06:16:44;102646.59;;;8.19;100.00
54308;BME280;40208;39.778;2.710;2024-01-27T06:19:29;102777.59;;;8.97;100.00
54308;BME280;40208;39.778;2.710;2024-01-27T06:22:13;102559.63;;;7.60;100.00
54308;BME280;40208;39.778;2.710;2024-01-27T06:24:58;102774.34;;;8.48;100.00
54308;BME280;40208;39.778;2.710;2024-01-27T06:27:43;102721.59;;;7.95;100.00
54308;BME280;40208;39.778;2.710;2024-01-27T06:30:28;102757.75;;;7.93;100.00
54308;BME280;40208;39.778;2.710;2024-01-27T06:33:13;102729.63;;;7.44;100.00
54308;BME280;40208;39.778;2.710;2024-01-27T06:35:58;102693.50;;;7.54;100.00
54308;BME280;40208;39.778;2.710;2024-01-27T06:38:43;102707.56;;;7.79;100.00
54308;BME280;40208;39.778;2.710;2024-01-27T06:41:28;102732.25;;;7.65;100.00
54308;BME280;40208;39.778;2.710;2024-01-27T06:44:13;102698.81;;;7.48;100.00
54308;BME280;40208;39.778;2.710;2024-01-27T06:46:58;102792.97;;;8.12;100.00
54308;BME280;40208;39.778;2.710;2024-01-27T06:49:43;102782.34;;;8.28;100.00
54308;BME280;40208;39.778;2.710;2024-01-27T06:52:28;102871.31;;;8.69;100.00
54308;BME280;40208;39.778;2.710;2024-01-27T06:55:13;102841.28;;;8.70;100.00
54308;BME280;40208;39.778;2.710;2024-01-27T06:57:58;102667.03;;;7.71;100.00
54308;BME280;40208;39.778;2.710;2024-01-27T07:00:44;102752.28;;;8.37;100.00
54308;BME280;40208;39.778;2.710;2024-01-27T07:03:29;102787.59;;;8.30;100.00
54308;BME280;40208;39.778;2.710;2024-01-27T07:06:14;102877.50;;;8.65;100.00
54308;BME280;40208;39.778;2.710;2024-01-27T07:08:59;102788.50;;;8.31;100.00
54308;BME280;40208;39.778;2.710;2024-01-27T07:11:44;102871.22;;;8.86;100.00
54308;BME280;40208;39.778;2.710;2024-01-27T07:14:29;102857.13;;;8.84;100.00
54308;BME280;40208;39.778;2.710;2024-01-27T07:17:14;102773.50;;;8.25;100.00
54308;BME280;40208;39.778;2.710;2024-01-27T07:19:58;102752.44;;;8.05;100.00
54308;BME280;40208;39.778;2.710;2024-01-27T07:22:43;102760.25;;;8.36;100.00
54308;BME280;40208;39.778;2.710;2024-01-27T07:25:28;102824.47;;;8.78;100.00
54308;BME280;40208;39.778;2.710;2024-01-27T07:28:14;102903.75;;;9.18;100.00
54308;BME280;40208;39.778;2.710;2024-01-27T07:31:00;102765.53;;;8.49;100.00
54308;BME280;40208;39.778;2.710;2024-01-27T07:33:45;102691.56;;;8.13;100.00
54308;BME280;40208;39.778;2.710;2024-01-27T07:36:30;102741.72;;;8.48;100.00
54308;BME280;40208;39.778;2.710;2024-01-27T07:39:17;102736.41;;;8.48;100.00
54308;BME280;40208;39.778;2.710;2024-01-27T07:42:02;102877.19;;;9.27;100.00
54308;BME280;40208;39.778;2.710;2024-01-27T07:44:46;102888.84;;;8.95;100.00
54308;BME280;40208;39.778;2.710;2024-01-27T07:47:31;102800.84;;;8.32;100.00
54308;BME280;40208;39.778;2.710;2024-01-27T07:50:16;102684.66;;;7.73;100.00
54308;BME280;40208;39.778;2.710;2024-01-27T07:53:01;102763.00;;;8.10;100.00
54308;BME280;40208;39.778;2.710;2024-01-27T07:55:46;102671.53;;;7.30;100.00
54308;BME280;40208;39.778;2.710;2024-01-27T07:58:31;102805.22;;;8.34;100.00
54308;BME280;40208;39.778;2.710;2024-01-27T08:01:16;102727.78;;;7.89;100.00
54308;BME280;40208;39.778;2.710;2024-01-27T08:04:01;102784.94;;;8.36;100.00
54308;BME280;40208;39.778;2.710;2024-01-27T08:06:47;102791.16;;;8.26;100.00
54308;BME280;40208;39.778;2.710;2024-01-27T08:09:33;102727.81;;;7.86;100.00
54308;BME280;40208;39.778;2.710;2024-01-27T08:12:18;102864.28;;;8.59;100.00
54308;BME280;40208;39.778;2.710;2024-01-27T08:15:03;102587.94;;;7.08;100.00
54308;BME280;40208;39.778;2.710;2024-01-27T08:17:49;102903.84;;;9.02;100.00
54308;BME280;40208;39.778;2.710;2024-01-27T08:20:34;102908.25;;;9.06;100.00
54308;BME280;40208;39.778;2.710;2024-01-27T08:23:19;102762.88;;;8.48;100.00
54308;BME280;40208;39.778;2.710;2024-01-27T08:26:04;102762.88;;;8.46;100.00
54308;BME280;40208;39.778;2.710;2024-01-27T08:28:49;102916.09;;;9.20;100.00
54308;BME280;40208;39.778;2.710;2024-01-27T08:31:34;102772.63;;;8.29;100.00
54308;BME280;40208;39.778;2.710;2024-01-27T08:34:19;102742.63;;;8.32;100.00
54308;BME280;40208;39.778;2.710;2024-01-27T08:37:14;102685.44;;;8.06;100.00
54308;BME280;40208;39.778;2.710;2024-01-27T08:40:00;102759.31;;;8.57;100.00
54308;BME280;40208;39.778;2.710;2024-01-27T08:42:45;102599.16;;;7.88;100.00
54308;BME280;40208;39.778;2.710;2024-01-27T08:45:30;102737.03;;;8.95;100.00
54308;BME280;40208;39.778;2.710;2024-01-27T08:48:15;102932.13;;;10.27;100.00
54308;BME280;40208;39.778;2.710;2024-01-27T08:51:01;102640.00;;;8.87;100.00
54308;BME280;40208;39.778;2.710;2024-01-27T08:53:46;102722.47;;;9.49;100.00
54308;BME280;40208;39.778;2.710;2024-01-27T08:56:33;102761.06;;;9.78;100.00
54308;BME280;40208;39.778;2.710;2024-01-27T08:59:18;102717.03;;;9.62;100.00
54308;BME280;40208;39.778;2.710;2024-01-27T09:02:03;102626.56;;;9.09;100.00
54308;BME280;40208;39.778;2.710;2024-01-27T09:04:47;102602.69;;;9.13;100.00
54308;BME280;40208;39.778;2.710;2024-01-27T09:07:33;102772.06;;;10.23;100.00
54308;BME280;40208;39.778;2.710;2024-01-27T09:10:18;102799.28;;;10.42;100.00
54308;BME280;40208;39.778;2.710;2024-01-27T09:13:04;102716.50;;;10.08;100.00
54308;BME280;40208;39.778;2.710;2024-01-27T09:15:52;102786.78;;;10.50;100.00
54308;BME280;40208;39.778;2.710;2024-01-27T09:18:37;102860.47;;;11.04;100.00
54308;BME280;40208;39.778;2.710;2024-01-27T09:21:21;102637.09;;;9.94;100.00
54308;BME280;40208;39.778;2.710;2024-01-27T09:24:12;102714.25;;;10.50;100.00
54308;BME280;40208;39.778;2.710;2024-01-27T09:26:57;102849.31;;;11.39;100.00
54308;BME280;40208;39.778;2.710;2024-01-27T09:29:42;102821.03;;;11.35;100.00
54308;BME280;40208;39.778;2.710;2024-01-27T09:32:27;102885.97;;;11.76;100.00
54308;BME280;40208;39.778;2.710;2024-01-27T09:35:12;102679.34;;;10.74;100.00
54308;BME280;40208;39.778;2.710;2024-01-27T09:37:57;102884.69;;;12.02;100.00
54308;BME280;40208;39.778;2.710;2024-01-27T09:40:42;102862.72;;;11.86;100.00
54308;BME280;40208;39.778;2.710;2024-01-27T09:43:28;102786.38;;;11.41;100.00
54308;BME280;40208;39.778;2.710;2024-01-27T09:46:15;102708.09;;;11.05;100.00
54308;BME280;40208;39.778;2.710;2024-01-27T09:49:02;102846.66;;;11.95;100.00
54308;BME280;40208;39.778;2.710;2024-01-27T09:51:48;102693.56;;;11.26;100.00
54308;BME280;40208;39.778;2.710;2024-01-27T09:54:34;102750.50;;;11.64;100.00
54308;BME280;40208;39.778;2.710;2024-01-27T09:57:20;102863.59;;;12.38;100.00
54308;BME280;40208;39.778;2.710;2024-01-27T10:00:10;102898.47;;;12.72;100.00
54308;BME280;40208;39.778;2.710;2024-01-27T10:02:57;102842.47;;;12.30;100.00
54308;BME280;40208;39.778;2.710;2024-01-27T10:05:42;102801.94;;;12.14;100.00
54308;BME280;40208;39.778;2.710;2024-01-27T10:08:28;102780.72;;;12.09;100.00
54308;BME280;40208;39.778;2.710;2024-01-27T10:11:13;102816.94;;;12.18;100.00
54308;BME280;40208;39.778;2.710;2024-01-27T10:13:59;102762.19;;;12.05;100.00
54308;BME280;40208;39.778;2.710;2024-01-27T10:16:45;102952.59;;;13.18;100.00
54308;BME280;40208;39.778;2.710;2024-01-27T10:19:30;102712.88;;;11.84;100.00
54308;BME280;40208;39.778;2.710;2024-01-27T10:22:15;102848.81;;;12.66;100.00
54308;BME280;40208;39.778;2.710;2024-01-27T10:25:00;102911.03;;;13.07;100.00
54308;BME280;40208;39.778;2.710;2024-01-27T10:27:46;102853.88;;;12.80;100.00
54308;BME280;40208;39.778;2.710;2024-01-27T10:30:32;102929.22;;;13.30;100.00
54308;BME280;40208;39.778;2.710;2024-01-27T10:33:17;102816.75;;;12.71;100.00
54308;BME280;40208;39.778;2.710;2024-01-27T10:36:02;102927.22;;;13.42;100.00
54308;BME280;40208;39.778;2.710;2024-01-27T10:38:47;102797.22;;;12.72;100.00
54308;BME280;40208;39.778;2.710;2024-01-27T10:41:32;102874.25;;;13.23;100.00
54308;BME280;40208;39.778;2.710;2024-01-27T10:44:20;102893.56;;;13.36;100.00
54308;BME280;40208;39.778;2.710;2024-01-27T10:47:08;102888.00;;;13.45;100.00
54308;BME280;40208;39.778;2.710;2024-01-27T10:49:58;102828.88;;;13.25;100.00
54308;BME280;40208;39.778;2.710;2024-01-27T10:52:44;102843.97;;;13.27;100.00
54308;BME280;40208;39.778;2.710;2024-01-27T10:55:33;102898.00;;;13.74;100.00
54308;BME280;40208;39.778;2.710;2024-01-27T10:58:19;102883.78;;;13.74;100.00
54308;BME280;40208;39.778;2.710;2024-01-27T11:01:05;102794.25;;;13.23;100.00
54308;BME280;40208;39.778;2.710;2024-01-27T11:03:52;102770.22;;;13.25;100.00
54308;BME280;40208;39.778;2.710;2024-01-27T11:06:39;102832.44;;;13.63;100.00
54308;BME280;40208;39.778;2.710;2024-01-27T11:09:27;102810.19;;;13.64;100.00
54308;BME280;40208;39.778;2.710;2024-01-27T11:12:13;102699.63;;;13.05;100.00
54308;BME280;40208;39.778;2.710;2024-01-27T11:14:57;102795.75;;;13.71;100.00
54308;BME280;40208;39.778;2.710;2024-01-27T11:17:45;102920.97;;;14.49;100.00
54308;BME280;40208;39.778;2.710;2024-01-27T11:20:31;102902.25;;;14.50;100.00
54308;BME280;40208;39.778;2.710;2024-01-27T11:23:16;102805.72;;;13.98;100.00
54308;BME280;40208;39.778;2.710;2024-01-27T11:26:05;102890.56;;;14.54;100.00
54308;BME280;40208;39.778;2.710;2024-01-27T11:28:51;102782.75;;;13.93;100.00
54308;BME280;40208;39.778;2.710;2024-01-27T11:31:36;102777.09;;;14.04;100.00
54308;BME280;40208;39.778;2.710;2024-01-27T11:34:24;102625.13;;;13.33;100.00
54308;BME280;40208;39.778;2.710;2024-01-27T11:37:14;102877.22;;;14.86;100.00
54308;BME280;40208;39.778;2.710;2024-01-27T11:40:06;102921.09;;;15.08;100.00
54308;BME280;40208;39.778;2.710;2024-01-27T11:42:55;102813.78;;;14.61;100.00
54308;BME280;40208;39.778;2.710;2024-01-27T11:45:41;102807.31;;;14.68;100.00
54308;BME280;40208;39.778;2.710;2024-01-27T11:48:26;102789.69;;;14.62;100.00
54308;BME280;40208;39.778;2.710;2024-01-27T11:51:11;102889.06;;;15.35;100.00
54308;BME280;40208;39.778;2.710;2024-01-27T11:53:56;102837.44;;;15.04;100.00
54308;BME280;40208;39.778;2.710;2024-01-27T11:56:41;102896.09;;;15.39;100.00
54308;BME280;40208;39.778;2.710;2024-01-27T11:59:26;102763.69;;;14.68;100.00
54308;BME280;40208;39.778;2.710;2024-01-27T12:02:11;102821.84;;;15.17;100.00
54308;BME280;40208;39.778;2.710;2024-01-27T12:04:56;102832.06;;;15.33;100.00
54308;BME280;40208;39.778;2.710;2024-01-27T12:07:41;102796.91;;;15.17;100.00
54308;BME280;40208;39.778;2.710;2024-01-27T12:10:26;102731.09;;;14.84;100.00
54308;BME280;40208;39.778;2.710;2024-01-27T12:13:11;102663.94;;;14.37;100.00
54308;BME280;40208;39.778;2.710;2024-01-27T12:15:56;102688.81;;;14.69;100.00
54308;BME280;40208;39.778;2.710;2024-01-27T12:18:41;102689.59;;;14.73;100.00
54308;BME280;40208;39.778;2.710;2024-01-27T12:21:26;102824.94;;;15.60;100.00
54308;BME280;40208;39.778;2.710;2024-01-27T12:24:16;102748.63;;;15.21;100.00
54308;BME280;40208;39.778;2.710;2024-01-27T12:27:01;102824.63;;;15.69;100.00
54308;BME280;40208;39.778;2.710;2024-01-27T12:29:47;102791.38;;;15.50;100.00
54308;BME280;40208;39.778;2.710;2024-01-27T12:32:33;102832.09;;;15.86;100.00
54308;BME280;40208;39.778;2.710;2024-01-27T12:35:17;102716.75;;;15.14;100.00
54308;BME280;40208;39.778;2.710;2024-01-27T12:38:02;102686.69;;;15.07;100.00
54308;BME280;40208;39.778;2.710;2024-01-27T12:40:49;102819.38;;;15.93;100.00
54308;BME280;40208;39.778;2.710;2024-01-27T12:43:34;102780.69;;;15.76;100.00
54308;BME280;40208;39.778;2.710;2024-01-27T12:46:19;102818.28;;;15.98;100.00
54308;BME280;40208;39.778;2.710;2024-01-27T12:49:04;102682.56;;;15.23;100.00
54308;BME280;40208;39.778;2.710;2024-01-27T12:51:50;102646.63;;;15.05;100.00
54308;BME280;40208;39.778;2.710;2024-01-27T12:54:34;102812.75;;;16.03;100.00
54308;BME280;40208;39.778;2.710;2024-01-27T12:57:19;102719.44;;;15.40;100.00
54308;BME280;40208;39.778;2.710;2024-01-27T13:00:07;102757.63;;;15.72;100.00
54308;BME280;40208;39.778;2.710;2024-01-27T13:02:54;102767.47;;;15.72;100.00
54308;BME280;40208;39.778;2.710;2024-01-27T13:05:39;102739.13;;;15.64;100.00
54308;BME280;40208;39.778;2.710;2024-01-27T13:08:24;102794.78;;;16.06;100.00
54308;BME280;40208;39.778;2.710;2024-01-27T13:11:09;102719.44;;;15.65;100.00
54308;BME280;40208;39.778;2.710;2024-01-27T13:13:53;102675.81;;;15.38;100.00
54308;BME280;40208;39.778;2.710;2024-01-27T13:16:38;102557.63;;;14.75;100.00
54308;BME280;40208;39.778;2.710;2024-01-27T13:19:23;102754.34;;;15.89;100.00
54308;BME280;40208;39.778;2.710;2024-01-27T13:22:08;102765.34;;;16.06;100.00
54308;BME280;40208;39.778;2.710;2024-01-27T13:24:53;102685.97;;;15.54;100.00
54308;BME280;40208;39.778;2.710;2024-01-27T13:27:39;102669.06;;;15.52;100.00
54308;BME280;40208;39.778;2.710;2024-01-27T13:30:24;102618.97;;;15.32;100.00
54308;BME280;40208;39.778;2.710;2024-01-27T13:33:09;102755.06;;;16.18;100.00
54308;BME280;40208;39.778;2.710;2024-01-27T13:35:54;102755.03;;;16.19;100.00
54308;BME280;40208;39.778;2.710;2024-01-27T13:38:39;102690.94;;;15.89;100.00
54308;BME280;40208;39.778;2.710;2024-01-27T13:41:24;102741.59;;;16.21;100.00
54308;BME280;40208;39.778;2.710;2024-01-27T13:44:09;102561.59;;;15.15;100.00
54308;BME280;40208;39.778;2.710;2024-01-27T13:46:54;102570.81;;;15.32;100.00
54308;BME280;40208;39.778;2.710;2024-01-27T13:49:44;102737.00;;;16.23;100.00
54308;BME280;40208;39.778;2.710;2024-01-27T13:52:29;102725.38;;;16.24;100.00
54308;BME280;40208;39.778;2.710;2024-01-27T13:55:14;102713.16;;;16.17;100.00
54308;BME280;40208;39.778;2.710;2024-01-27T13:57:59;102665.06;;;15.90;100.00
54308;BME280;40208;39.778;2.710;2024-01-27T14:00:44;102674.47;;;16.00;100.00
54308;BME280;40208;39.778;2.710;2024-01-27T14:03:29;102596.72;;;15.55;100.00
54308;BME280;40208;39.778;2.710;2024-01-27T14:06:13;102581.66;;;15.52;100.00
54308;BME280;40208;39.778;2.710;2024-01-27T14:08:58;102691.78;;;16.15;100.00
54308;BME280;40208;39.778;2.710;2024-01-27T14:11:43;102651.53;;;15.93;100.00
54308;BME280;40208;39.778;2.710;2024-01-27T14:14:28;102564.88;;;15.47;100.00
54308;BME280;40208;39.778;2.710;2024-01-27T14:17:13;102733.78;;;16.38;100.00
54308;BME280;40208;39.778;2.710;2024-01-27T14:19:59;102580.88;;;15.48;100.00